Time;durP1;ratioP1;P1;durP2;ratioP2;P2;SDS_P1;SDS_P2;PMS_P1;PMS_P2;Temp;Humidity;BMP_temperature;BMP_pressure;BME280_temperature;BME280_humidity;BME280_pressure;Samples;Min_cycle;Max_cycle;Signal;HPM_P1;HPM_P2
2023/01/05 00:00:11;;;;;;;;;;;19.80;52.30;;;;;;1603761;74;1962;-70
2023/01/05 00:02:13;;;;;;;;;;;19.80;52.20;;;;;;1601100;73;788;-69
2023/01/05 00:04:15;;;;;;;;;;;19.80;52.30;;;;;;1605072;73;760;-69
2023/01/05 00:06:17;;;;;;;;;;;19.80;52.30;;;;;;1587216;74;746;-68
2023/01/05 00:08:19;;;;;;;;;;;19.80;52.30;;;;;;1605622;74;771;-68
2023/01/05 00:24:15;;;;;;;;;;;19.70;52.30;;;;;;1565872;75;1171;-69
2023/01/05 00:26:17;;;;;;;;;;;19.80;52.30;;;;;;1600235;74;682;-70
2023/01/05 00:28:19;;;;;;;;;;;19.80;52.30;;;;;;1600970;73;768;-70
2023/01/05 00:30:21;;;;;;;;;;;19.80;52.30;;;;;;1606194;73;1128;-70
2023/01/05 00:32:23;;;;;;;;;;;19.80;52.30;;;;;;1604980;73;781;-68
2023/01/05 00:34:25;;;;;;;;;;;19.80;52.30;;;;;;1597686;73;766;-70
2023/01/05 00:36:27;;;;;;;;;;;19.80;52.30;;;;;;1600152;74;691;-70
2023/01/05 00:38:29;;;;;;;;;;;19.80;52.40;;;;;;1606191;73;688;-69
2023/01/05 00:40:31;;;;;;;;;;;19.80;52.30;;;;;;1605915;73;1953;-69
2023/01/05 00:42:33;;;;;;;;;;;19.80;52.30;;;;;;1604427;73;732;-69
2023/01/05 00:44:35;;;;;;;;;;;19.80;52.30;;;;;;1605954;73;680;-70
2023/01/05 00:46:37;;;;;;;;;;;19.80;52.30;;;;;;1591452;73;1523;-69
2023/01/05 00:48:39;;;;;;;;;;;19.80;52.30;;;;;;1603263;73;887;-70
2023/01/05 00:50:41;;;;;;;;;;;19.80;52.30;;;;;;1604932;73;1170;-69
2023/01/05 00:52:43;;;;;;;;;;;19.80;52.30;;;;;;1605060;73;668;-69
2023/01/05 00:54:45;;;;;;;;;;;19.80;52.30;;;;;;1604950;74;770;-70
2023/01/05 00:56:48;;;;;;;;;;;19.80;52.30;;;;;;1600472;74;714;-69
2023/01/05 00:58:51;;;;;;;;;;;19.80;52.30;;;;;;1603365;73;773;-69
2023/01/05 01:00:53;;;;;;;;;;;19.80;52.30;;;;;;1597359;74;1970;-69
2023/01/05 01:02:55;;;;;;;;;;;19.80;52.30;;;;;;1604739;73;772;-69
2023/01/05 01:04:57;;;;;;;;;;;19.80;52.30;;;;;;1598974;73;692;-69
2023/01/05 01:06:59;;;;;;;;;;;19.80;52.30;;;;;;1591725;74;719;-70
2023/01/05 01:09:01;;;;;;;;;;;19.80;52.40;;;;;;1605026;73;757;-69
2023/01/05 01:11:04;;;;;;;;;;;19.80;52.30;;;;;;1604539;73;1082;-70
2023/01/05 01:13:06;;;;;;;;;;;19.80;52.30;;;;;;1604999;73;870;-69
2023/01/05 01:15:08;;;;;;;;;;;19.80;52.30;;;;;;1591153;73;765;-70
2023/01/05 01:17:10;;;;;;;;;;;19.80;52.30;;;;;;1605965;73;718;-69
2023/01/05 01:19:13;;;;;;;;;;;19.80;52.30;;;;;;1605897;73;732;-70
2023/01/05 01:21:14;;;;;;;;;;;19.80;52.30;;;;;;1595965;73;1926;-69
2023/01/05 01:23:16;;;;;;;;;;;19.80;52.30;;;;;;1601051;73;721;-70
2023/01/05 01:25:18;;;;;;;;;;;19.80;52.30;;;;;;1602577;73;792;-70
2023/01/05 01:27:20;;;;;;;;;;;19.90;52.40;;;;;;1540176;75;758;-69
2023/01/05 01:29:22;;;;;;;;;;;19.80;52.30;;;;;;1540665;76;733;-70
2023/01/05 01:31:24;;;;;;;;;;;19.80;52.30;;;;;;1608414;72;1153;-69
2023/01/05 01:33:26;;;;;;;;;;;19.80;52.30;;;;;;1597271;72;687;-69
2023/01/05 01:35:28;;;;;;;;;;;19.80;52.30;;;;;;1607643;74;894;-68
2023/01/05 01:37:30;;;;;;;;;;;19.80;52.30;;;;;;1617128;72;611;-70
2023/01/05 01:39:32;;;;;;;;;;;19.80;52.30;;;;;;1605228;72;1150;-70
2023/01/05 01:41:34;;;;;;;;;;;19.80;52.30;;;;;;1607300;74;1940;-67
2023/01/05 01:43:41;;;;;;;;;;;19.80;52.30;;;;;;1607900;73;1315;-70
2023/01/05 01:45:42;;;;;;;;;;;19.80;52.30;;;;;;1609008;74;679;-66
2023/01/05 01:47:55;;;;;;;;;;;19.80;52.30;;;;;;1602069;72;708;-68
2023/01/05 01:49:57;;;;;;;;;;;19.80;52.30;;;;;;1606423;73;1177;-70
2023/01/05 01:51:59;;;;;;;;;;;19.80;52.30;;;;;;1608066;72;689;-69
2023/01/05 01:54:02;;;;;;;;;;;19.80;52.30;;;;;;1606686;73;746;-70
2023/01/05 01:56:04;;;;;;;;;;;19.80;52.30;;;;;;1600739;74;699;-70
2023/01/05 01:58:10;;;;;;;;;;;19.70;52.30;;;;;;1573576;74;725;-70
2023/01/05 02:00:13;;;;;;;;;;;19.80;52.30;;;;;;1603861;73;1629;-66
2023/01/05 02:02:15;;;;;;;;;;;19.80;52.40;;;;;;1609603;72;1912;-69
2023/01/05 02:04:17;;;;;;;;;;;19.80;52.30;;;;;;1593608;73;753;-69
2023/01/05 02:06:19;;;;;;;;;;;19.90;52.30;;;;;;1598280;74;754;-69
2023/01/05 02:08:24;;;;;;;;;;;19.80;52.30;;;;;;1601162;72;750;-70
2023/01/05 02:10:26;;;;;;;;;;;19.80;52.30;;;;;;1604428;72;1660;-70
2023/01/05 02:12:32;;;;;;;;;;;19.80;52.30;;;;;;1605573;73;1868;-69
2023/01/05 02:14:38;;;;;;;;;;;19.80;52.30;;;;;;1608925;73;1626;-68
2023/01/05 02:16:44;;;;;;;;;;;19.80;52.30;;;;;;1606509;72;1979;-69
2023/01/05 02:19:04;;;;;;;;;;;19.80;52.30;;;;;;1608272;72;1679;-69
2023/01/05 02:21:08;;;;;;;;;;;19.80;52.30;;;;;;1598561;72;1940;-69
2023/01/05 02:23:14;;;;;;;;;;;19.80;52.30;;;;;;1607965;72;789;-70
2023/01/05 02:25:21;;;;;;;;;;;19.80;52.30;;;;;;1608063;74;725;-70
2023/01/05 02:27:30;;;;;;;;;;;19.70;52.30;;;;;;1596557;72;1922;-68
2023/01/05 02:29:46;;;;;;;;;;;19.80;52.30;;;;;;1600875;72;1085;-71
2023/01/05 02:31:59;;;;;;;;;;;19.80;52.30;;;;;;1607262;72;1574;-70
2023/01/05 02:34:14;;;;;;;;;;;19.80;52.30;;;;;;1595228;74;685;-71
2023/01/05 02:36:27;;;;;;;;;;;19.70;52.30;;;;;;1601474;72;723;-71
2023/01/05 02:38:36;;;;;;;;;;;19.70;52.30;;;;;;1611123;73;1536;-70
2023/01/05 02:40:46;;;;;;;;;;;19.70;52.30;;;;;;1592305;72;2055;-71
2023/01/05 02:42:47;;;;;;;;;;;19.80;52.30;;;;;;1605627;72;1006;-71
2023/01/05 02:44:49;;;;;;;;;;;19.80;52.30;;;;;;1615897;72;743;-70
2023/01/05 02:46:58;;;;;;;;;;;19.80;52.40;;;;;;1607955;72;785;-71
2023/01/05 02:49:00;;;;;;;;;;;19.80;52.40;;;;;;1604387;73;913;-69
2023/01/05 02:51:03;;;;;;;;;;;19.70;52.30;;;;;;1595745;74;1107;-68
2023/01/05 02:53:13;;;;;;;;;;;19.80;52.30;;;;;;1605848;73;743;-70
2023/01/05 02:55:16;;;;;;;;;;;19.80;52.30;;;;;;1608387;73;961;-68
2023/01/05 02:57:20;;;;;;;;;;;19.80;52.30;;;;;;1607051;72;737;-71
2023/01/05 02:59:26;;;;;;;;;;;19.80;52.30;;;;;;1608881;72;777;-71
2023/01/05 03:01:32;;;;;;;;;;;19.80;52.30;;;;;;1605385;72;1956;-71
2023/01/05 03:03:38;;;;;;;;;;;19.80;52.30;;;;;;1607367;73;786;-71
2023/01/05 03:05:42;;;;;;;;;;;19.70;52.40;;;;;;1602992;72;720;-71
2023/01/05 03:07:44;;;;;;;;;;;19.80;52.30;;;;;;1607044;72;739;-70
2023/01/05 03:09:45;;;;;;;;;;;19.80;52.40;;;;;;1608114;72;1138;-70
2023/01/05 03:14:16;;;;;;;;;;;19.80;52.40;;;;;;1605308;72;1879;-68
2023/01/05 03:16:20;;;;;;;;;;;19.80;52.30;;;;;;1609383;72;738;-71
2023/01/05 03:18:22;;;;;;;;;;;19.80;52.30;;;;;;1608373;72;678;-71
2023/01/05 03:20:24;;;;;;;;;;;19.80;52.30;;;;;;1610164;73;1123;-68
2023/01/05 03:36:28;;;;;;;;;;;19.70;52.40;;;;;;1603470;72;1733;-70
2023/01/05 03:38:38;;;;;;;;;;;19.80;52.40;;;;;;1604555;74;728;-70
2023/01/05 03:40:40;;;;;;;;;;;19.70;52.40;;;;;;1604284;72;1792;-69
2023/01/05 03:42:42;;;;;;;;;;;19.80;52.50;;;;;;1601020;72;1924;-68
2023/01/05 03:44:44;;;;;;;;;;;19.80;52.40;;;;;;1607628;73;804;-70
2023/01/05 03:46:46;;;;;;;;;;;19.80;52.40;;;;;;1611022;72;793;-70
2023/01/05 03:48:48;;;;;;;;;;;19.80;52.40;;;;;;1608059;72;730;-71
2023/01/05 03:50:50;;;;;;;;;;;19.80;52.40;;;;;;1607401;74;1143;-70
2023/01/05 03:52:51;;;;;;;;;;;19.80;52.40;;;;;;1606351;72;855;-70
2023/01/05 03:54:53;;;;;;;;;;;19.80;52.40;;;;;;1614023;72;667;-70
2023/01/05 03:56:55;;;;;;;;;;;19.70;52.40;;;;;;1604471;73;732;-70
2023/01/05 03:58:57;;;;;;;;;;;19.80;52.40;;;;;;1610620;72;755;-71
2023/01/05 04:00:59;;;;;;;;;;;19.80;52.30;;;;;;1607513;72;1975;-68
2023/01/05 04:03:01;;;;;;;;;;;19.80;52.30;;;;;;1608026;74;809;-70
2023/01/05 04:05:03;;;;;;;;;;;19.80;52.30;;;;;;1607745;72;655;-71
2023/01/05 04:07:06;;;;;;;;;;;19.80;52.30;;;;;;1609269;74;688;-71
2023/01/05 04:09:08;;;;;;;;;;;19.80;52.30;;;;;;1603414;73;730;-69
2023/01/05 04:11:13;;;;;;;;;;;19.80;52.30;;;;;;1608219;72;1109;-71
2023/01/05 04:13:15;;;;;;;;;;;19.80;52.30;;;;;;1604251;73;793;-71
2023/01/05 04:15:16;;;;;;;;;;;19.80;52.30;;;;;;1609174;73;726;-71
2023/01/05 04:17:18;;;;;;;;;;;19.80;52.40;;;;;;1607940;72;767;-70
2023/01/05 04:19:20;;;;;;;;;;;19.80;52.30;;;;;;1609642;73;717;-71
2023/01/05 04:21:22;;;;;;;;;;;19.80;52.40;;;;;;1601912;73;1965;-71
2023/01/05 04:23:24;;;;;;;;;;;19.80;52.40;;;;;;1601995;73;636;-71
2023/01/05 04:25:26;;;;;;;;;;;19.80;52.30;;;;;;1608232;72;731;-71
2023/01/05 04:27:28;;;;;;;;;;;19.80;52.30;;;;;;1612649;72;777;-70
2023/01/05 04:29:29;;;;;;;;;;;19.80;52.30;;;;;;1602058;72;1125;-70
2023/01/05 04:31:31;;;;;;;;;;;19.80;52.30;;;;;;1577171;70;2086;-70
2023/01/05 04:33:33;;;;;;;;;;;19.80;52.30;;;;;;1534471;75;736;-69
2023/01/05 04:35:35;;;;;;;;;;;19.80;52.30;;;;;;1531845;75;728;-70
2023/01/05 04:37:37;;;;;;;;;;;19.80;52.40;;;;;;1546487;77;605;-70
2023/01/05 04:39:39;;;;;;;;;;;19.80;52.40;;;;;;1538266;76;725;-70
2023/01/05 04:41:41;;;;;;;;;;;19.80;52.40;;;;;;1543203;75;1949;-70
2023/01/05 04:43:42;;;;;;;;;;;19.80;52.30;;;;;;1541005;76;718;-70
2023/01/05 04:45:47;;;;;;;;;;;19.80;52.40;;;;;;1549338;75;739;-70
2023/01/05 04:47:50;;;;;;;;;;;19.80;52.40;;;;;;1543100;76;755;-70
2023/01/05 04:49:52;;;;;;;;;;;19.80;52.40;;;;;;1537042;76;802;-73
2023/01/05 04:51:54;;;;;;;;;;;19.80;52.40;;;;;;1542787;76;1098;-70
2023/01/05 04:53:56;;;;;;;;;;;19.80;52.40;;;;;;1532496;76;707;-71
2023/01/05 04:55:58;;;;;;;;;;;19.80;52.40;;;;;;1540551;76;725;-71
2023/01/05 04:58:00;;;;;;;;;;;19.80;52.40;;;;;;1541532;76;736;-70
2023/01/05 05:00:02;;;;;;;;;;;19.90;52.40;;;;;;1545237;75;1156;-68
2023/01/05 05:02:04;;;;;;;;;;;19.80;52.40;;;;;;1540736;77;1909;-71
2023/01/05 05:04:06;;;;;;;;;;;19.80;52.40;;;;;;1530338;76;811;-69
2023/01/05 05:06:08;;;;;;;;;;;19.80;52.30;;;;;;1542629;77;733;-69
2023/01/05 05:08:10;;;;;;;;;;;19.70;52.40;;;;;;1533677;76;571;-71
2023/01/05 05:10:14;;;;;;;;;;;19.80;52.30;;;;;;1542004;76;1137;-70
2023/01/05 05:12:19;;;;;;;;;;;19.80;52.30;;;;;;1542282;76;1010;-71
2023/01/05 05:14:19;;;;;;;;;;;19.80;52.30;;;;;;1549012;75;1200;-69
2023/01/05 05:16:21;;;;;;;;;;;19.80;52.30;;;;;;1541788;76;772;-70
2023/01/05 05:18:23;;;;;;;;;;;19.80;52.30;;;;;;1536865;77;593;-71
2023/01/05 05:20:25;;;;;;;;;;;19.80;52.30;;;;;;1538525;76;1147;-71
2023/01/05 05:22:27;;;;;;;;;;;19.90;52.40;;;;;;1542382;76;1919;-71
2023/01/05 05:24:29;;;;;;;;;;;19.90;52.30;;;;;;1543124;76;700;-71
2023/01/05 05:26:30;;;;;;;;;;;19.80;52.30;;;;;;1543235;76;711;-71
2023/01/05 05:28:32;;;;;;;;;;;19.80;52.30;;;;;;1542779;75;1470;-71
2023/01/05 05:30:34;;;;;;;;;;;19.80;52.30;;;;;;1542647;76;1141;-70
2023/01/05 05:32:36;;;;;;;;;;;19.80;52.30;;;;;;1543262;76;882;-71
2023/01/05 05:34:38;;;;;;;;;;;19.80;52.30;;;;;;1542685;76;593;-70
2023/01/05 05:36:40;;;;;;;;;;;19.80;52.30;;;;;;1543110;76;736;-70
2023/01/05 05:38:42;;;;;;;;;;;19.80;52.30;;;;;;1542991;76;845;-70
2023/01/05 05:40:44;;;;;;;;;;;19.80;52.30;;;;;;1540415;76;1161;-71
2023/01/05 05:42:45;;;;;;;;;;;19.80;52.30;;;;;;1547534;75;1951;-72
2023/01/05 05:44:47;;;;;;;;;;;19.70;52.30;;;;;;1544386;75;785;-70
2023/01/05 05:46:49;;;;;;;;;;;19.80;52.30;;;;;;1543020;76;708;-70
2023/01/05 05:48:51;;;;;;;;;;;19.80;52.30;;;;;;1543331;77;797;-68
2023/01/05 05:50:53;;;;;;;;;;;19.70;52.30;;;;;;1536445;76;1121;-70
2023/01/05 05:52:55;;;;;;;;;;;19.80;52.30;;;;;;1541632;76;716;-70
2023/01/05 05:54:57;;;;;;;;;;;19.80;52.30;;;;;;1535653;77;718;-68
2023/01/05 05:56:58;;;;;;;;;;;19.80;52.30;;;;;;1543195;75;780;-71
2023/01/05 05:59:00;;;;;;;;;;;19.80;52.30;;;;;;1541007;75;731;-70
2023/01/05 06:01:02;;;;;;;;;;;19.80;52.30;;;;;;1543251;76;1131;-70
2023/01/05 06:03:04;;;;;;;;;;;19.80;52.30;;;;;;1543340;77;1941;-70
2023/01/05 06:05:06;;;;;;;;;;;19.80;52.30;;;;;;1541511;76;729;-69
2023/01/05 06:07:08;;;;;;;;;;;19.80;52.30;;;;;;1543371;76;782;-70
2023/01/05 06:09:10;;;;;;;;;;;19.80;52.30;;;;;;1542720;76;740;-71
2023/01/05 06:11:12;;;;;;;;;;;19.80;52.30;;;;;;1536430;76;1146;-71
2023/01/05 06:13:14;;;;;;;;;;;19.80;52.30;;;;;;1543098;76;728;-70
2023/01/05 06:15:15;;;;;;;;;;;19.80;52.20;;;;;;1537692;76;608;-71
2023/01/05 06:17:17;;;;;;;;;;;19.80;52.30;;;;;;1529291;76;713;-71
2023/01/05 06:19:19;;;;;;;;;;;19.80;52.30;;;;;;1543252;76;751;-71
2023/01/05 06:21:21;;;;;;;;;;;19.80;52.30;;;;;;1542605;76;1120;-70
2023/01/05 06:23:23;;;;;;;;;;;19.80;52.30;;;;;;1543489;76;1933;-70
2023/01/05 06:25:25;;;;;;;;;;;19.80;52.30;;;;;;1542771;76;729;-71
2023/01/05 06:27:27;;;;;;;;;;;19.80;52.30;;;;;;1548486;75;633;-70
2023/01/05 06:29:28;;;;;;;;;;;19.80;52.30;;;;;;1537940;77;782;-71
2023/01/05 06:31:30;;;;;;;;;;;19.80;52.30;;;;;;1533796;76;1106;-70
2023/01/05 06:33:32;;;;;;;;;;;19.80;52.30;;;;;;1538025;76;792;-70
2023/01/05 06:35:34;;;;;;;;;;;19.80;52.30;;;;;;1528343;76;697;-71
2023/01/05 06:37:36;;;;;;;;;;;19.80;52.30;;;;;;1542884;77;710;-71
2023/01/05 06:39:38;;;;;;;;;;;19.80;52.30;;;;;;1542885;77;707;-70
2023/01/05 06:41:40;;;;;;;;;;;19.80;52.30;;;;;;1542082;76;1234;-71
2023/01/05 06:43:41;;;;;;;;;;;19.70;52.30;;;;;;1533679;76;1939;-71
2023/01/05 06:45:44;;;;;;;;;;;19.80;52.30;;;;;;1543407;76;602;-70
2023/01/05 06:47:45;;;;;;;;;;;19.80;52.30;;;;;;1543612;76;705;-71
2023/01/05 06:49:47;;;;;;;;;;;19.80;52.30;;;;;;1543249;76;689;-71
2023/01/05 06:51:49;;;;;;;;;;;19.70;52.30;;;;;;1543173;76;1117;-70
2023/01/05 06:53:51;;;;;;;;;;;19.80;52.30;;;;;;1533704;76;723;-71
2023/01/05 06:55:53;;;;;;;;;;;19.80;52.30;;;;;;1530762;76;666;-70
2023/01/05 06:57:55;;;;;;;;;;;19.80;52.30;;;;;;1535863;76;715;-71
2023/01/05 06:59:57;;;;;;;;;;;19.80;52.30;;;;;;1537425;76;732;-69
2023/01/05 07:01:58;;;;;;;;;;;19.80;52.30;;;;;;1543752;76;1184;-71
2023/01/05 07:04:00;;;;;;;;;;;19.80;52.30;;;;;;1535696;77;1942;-69
2023/01/05 07:06:03;;;;;;;;;;;19.80;52.30;;;;;;1543592;76;731;-71
2023/01/05 07:08:05;;;;;;;;;;;19.80;52.30;;;;;;1542652;76;636;-70
2023/01/05 07:10:07;;;;;;;;;;;19.80;52.30;;;;;;1538900;77;1139;-71
2023/01/05 07:12:08;;;;;;;;;;;19.80;52.30;;;;;;1537780;76;739;-70
2023/01/05 07:14:10;;;;;;;;;;;19.80;52.30;;;;;;1535682;76;742;-70
2023/01/05 07:16:12;;;;;;;;;;;19.70;52.30;;;;;;1542812;76;744;-71
2023/01/05 07:18:14;;;;;;;;;;;19.80;52.30;;;;;;1542352;76;738;-71
2023/01/05 07:20:16;;;;;;;;;;;19.80;52.30;;;;;;1543484;76;1347;-71
2023/01/05 07:22:18;;;;;;;;;;;19.80;52.30;;;;;;1543011;76;1931;-71
2023/01/05 07:24:20;;;;;;;;;;;19.80;52.30;;;;;;1542768;76;728;-71
2023/01/05 07:26:21;;;;;;;;;;;19.80;52.30;;;;;;1545000;75;680;-71
2023/01/05 07:28:23;;;;;;;;;;;19.80;52.30;;;;;;1543651;76;748;-71
2023/01/05 07:30:25;;;;;;;;;;;19.80;52.30;;;;;;1539564;76;1228;-71
2023/01/05 07:32:27;;;;;;;;;;;19.80;52.30;;;;;;1543014;77;774;-71
2023/01/05 07:34:29;;;;;;;;;;;19.80;52.30;;;;;;1543583;76;689;-71
2023/01/05 07:36:31;;;;;;;;;;;19.80;52.30;;;;;;1538505;76;781;-71
2023/01/05 07:38:33;;;;;;;;;;;19.80;52.30;;;;;;1505022;77;685;-71
2023/01/05 07:40:35;;;;;;;;;;;19.80;52.30;;;;;;1551272;75;1179;-71
2023/01/05 07:42:37;;;;;;;;;;;19.80;52.30;;;;;;1541656;76;1929;-71
2023/01/05 07:44:39;;;;;;;;;;;19.80;52.30;;;;;;1543702;76;729;-71
2023/01/05 07:46:40;;;;;;;;;;;19.80;52.30;;;;;;1542775;76;645;-71
2023/01/05 07:48:42;;;;;;;;;;;19.80;52.30;;;;;;1540708;76;670;-68
2023/01/05 07:50:44;;;;;;;;;;;19.80;52.30;;;;;;1543265;76;1148;-70
2023/01/05 07:52:46;;;;;;;;;;;19.80;52.30;;;;;;1530572;76;694;-71
2023/01/05 07:54:48;;;;;;;;;;;19.80;52.30;;;;;;1533822;75;731;-68
2023/01/05 07:56:50;;;;;;;;;;;19.80;52.30;;;;;;1539466;76;782;-71
2023/01/05 07:58:52;;;;;;;;;;;19.80;52.30;;;;;;1546634;76;750;-70
2023/01/05 08:00:54;;;;;;;;;;;19.80;52.30;;;;;;1543452;76;1165;-69
2023/01/05 08:02:56;;;;;;;;;;;19.80;52.30;;;;;;1536438;77;1904;-70
2023/01/05 08:04:58;;;;;;;;;;;19.80;52.30;;;;;;1542272;77;705;-70
2023/01/05 08:07:01;;;;;;;;;;;19.90;52.30;;;;;;1541948;76;719;-71
2023/01/05 08:10:27;;;;;;;;;;;19.80;52.30;;;;;;1538294;76;707;-70
2023/01/05 08:11:07;;;;;;;;;;;19.70;52.30;;;;;;1542550;75;1149;-70
2023/01/05 08:15:29;;;;;;;;;;;19.80;52.30;;;;;;1543410;76;1644;-70
2023/01/05 08:17:31;;;;;;;;;;;19.70;52.30;;;;;;1543629;76;1558;-70
2023/01/05 08:19:32;;;;;;;;;;;19.70;52.30;;;;;;1541593;76;720;-71
2023/01/05 08:21:34;;;;;;;;;;;19.80;52.30;;;;;;1536398;76;1149;-70
2023/01/05 08:23:36;;;;;;;;;;;19.80;52.30;;;;;;1535147;76;1939;-71
2023/01/05 08:25:38;;;;;;;;;;;19.80;52.30;;;;;;1542875;75;789;-71
2023/01/05 08:27:40;;;;;;;;;;;19.80;52.30;;;;;;1543329;76;597;-70
2023/01/05 08:29:42;;;;;;;;;;;19.80;52.30;;;;;;1541581;77;729;-69
2023/01/05 08:31:44;;;;;;;;;;;19.80;52.30;;;;;;1541178;76;1116;-70
2023/01/05 08:33:46;;;;;;;;;;;19.80;52.30;;;;;;1536696;76;834;-71
2023/01/05 08:35:48;;;;;;;;;;;19.90;52.30;;;;;;1542917;76;709;-72
2023/01/05 08:37:49;;;;;;;;;;;19.80;52.20;;;;;;1542902;76;696;-69
2023/01/05 08:39:51;;;;;;;;;;;19.80;52.30;;;;;;1550802;75;761;-71
2023/01/05 08:41:53;;;;;;;;;;;19.90;52.30;;;;;;1542704;76;1122;-70
2023/01/05 08:43:56;;;;;;;;;;;19.90;52.30;;;;;;1530438;77;1945;-70
2023/01/05 08:45:58;;;;;;;;;;;19.80;52.30;;;;;;1530336;76;720;-71
2023/01/05 08:48:00;;;;;;;;;;;19.80;52.30;;;;;;1541780;76;744;-71
2023/01/05 08:50:02;;;;;;;;;;;19.80;52.30;;;;;;1528679;76;1153;-70
2023/01/05 08:52:06;;;;;;;;;;;19.90;52.30;;;;;;1538367;76;715;-70
2023/01/05 08:54:08;;;;;;;;;;;19.80;52.30;;;;;;1546379;75;793;-69
2023/01/05 08:56:10;;;;;;;;;;;19.80;52.30;;;;;;1538824;76;692;-70
2023/01/05 08:58:11;;;;;;;;;;;19.80;52.30;;;;;;1543351;77;790;-71
2023/01/05 09:00:16;;;;;;;;;;;19.80;52.30;;;;;;1543133;76;1154;-70
2023/01/05 09:02:18;;;;;;;;;;;19.80;52.30;;;;;;1543421;76;762;-71
2023/01/05 09:04:19;;;;;;;;;;;19.90;52.30;;;;;;1542907;76;1995;-71
2023/01/05 09:06:21;;;;;;;;;;;19.80;52.30;;;;;;1543208;76;810;-71
2023/01/05 09:08:23;;;;;;;;;;;19.80;52.30;;;;;;1539586;76;787;-71
2023/01/05 09:10:25;;;;;;;;;;;19.80;52.30;;;;;;1554640;75;1095;-71
2023/01/05 09:12:27;;;;;;;;;;;19.80;52.20;;;;;;1543200;76;1449;-71
2023/01/05 09:14:29;;;;;;;;;;;19.90;52.30;;;;;;1543910;76;760;-69
2023/01/05 09:16:31;;;;;;;;;;;19.80;52.20;;;;;;1542809;76;712;-71
2023/01/05 09:18:33;;;;;;;;;;;19.80;52.30;;;;;;1540467;76;748;-72
2023/01/05 09:20:35;;;;;;;;;;;19.80;52.20;;;;;;1542125;76;1131;-70
2023/01/05 09:22:37;;;;;;;;;;;19.80;52.30;;;;;;1542250;76;745;-71
2023/01/05 09:24:39;;;;;;;;;;;19.80;52.30;;;;;;1543049;76;1920;-71
2023/01/05 09:26:41;;;;;;;;;;;19.80;52.20;;;;;;1535774;77;740;-70
2023/01/05 09:28:43;;;;;;;;;;;19.80;52.20;;;;;;1543282;76;759;-70
2023/01/05 09:30:45;;;;;;;;;;;19.80;52.20;;;;;;1541690;76;1137;-71
2023/01/05 09:32:47;;;;;;;;;;;19.80;52.30;;;;;;1543521;76;698;-69
2023/01/05 09:34:49;;;;;;;;;;;19.80;52.20;;;;;;1530815;76;779;-70
2023/01/05 09:36:51;;;;;;;;;;;19.90;52.30;;;;;;1541289;76;964;-71
2023/01/05 09:38:53;;;;;;;;;;;19.90;52.30;;;;;;1542891;76;783;-69
2023/01/05 09:40:55;;;;;;;;;;;19.80;52.20;;;;;;1550208;75;1150;-71
2023/01/05 09:42:56;;;;;;;;;;;19.80;52.20;;;;;;1543544;76;763;-70
2023/01/05 09:45:00;;;;;;;;;;;19.80;52.30;;;;;;1535206;76;1940;-69
2023/01/05 09:47:03;;;;;;;;;;;19.80;52.20;;;;;;1537551;76;1042;-71
2023/01/05 09:49:05;;;;;;;;;;;19.90;52.30;;;;;;1542495;76;685;-71
2023/01/05 09:51:08;;;;;;;;;;;19.90;52.30;;;;;;1543849;76;1136;-71
2023/01/05 09:53:10;;;;;;;;;;;19.80;52.20;;;;;;1543426;76;730;-69
2023/01/05 09:55:14;;;;;;;;;;;19.80;52.20;;;;;;1544685;75;620;-71
2023/01/05 09:57:17;;;;;;;;;;;19.80;52.30;;;;;;1535262;76;723;-71
2023/01/05 09:59:20;;;;;;;;;;;19.80;52.20;;;;;;1543418;76;739;-71
2023/01/05 10:01:22;;;;;;;;;;;19.90;52.30;;;;;;1542593;76;1632;-70
2023/01/05 10:03:24;;;;;;;;;;;19.90;52.30;;;;;;1536388;76;1939;-71
2023/01/05 10:05:26;;;;;;;;;;;19.80;52.20;;;;;;1543692;76;804;-71
2023/01/05 10:07:32;;;;;;;;;;;19.80;52.20;;;;;;1542303;76;696;-69
2023/01/05 10:09:42;;;;;;;;;;;19.80;52.30;;;;;;1536206;75;1642;-68
2023/01/05 10:14:07;;;;;;;;;;;19.90;52.30;;;;;;1542033;76;1702;-70
2023/01/05 10:16:10;;;;;;;;;;;19.90;52.30;;;;;;1535898;76;1346;-70
2023/01/05 10:18:16;;;;;;;;;;;19.80;52.20;;;;;;1538031;76;717;-71
2023/01/05 10:20:38;;;;;;;;;;;19.80;52.20;;;;;;1539132;76;1164;-70
2023/01/05 10:22:54;;;;;;;;;;;19.80;52.20;;;;;;1542880;76;727;-71
2023/01/05 10:25:13;;;;;;;;;;;19.90;52.30;;;;;;1536528;75;1940;-69
2023/01/05 10:27:17;;;;;;;;;;;19.80;52.20;;;;;;1529265;76;701;-70
2023/01/05 10:29:21;;;;;;;;;;;19.80;52.30;;;;;;1543765;76;712;-71
2023/01/05 10:31:24;;;;;;;;;;;19.90;52.30;;;;;;1559816;72;223837;-61
2023/01/05 10:33:44;;;;;;;;;;;19.90;52.30;;;;;;1573232;74;795;-61
2023/01/05 10:35:53;;;;;;;;;;;19.90;52.30;;;;;;1575001;74;730;-62
2023/01/05 10:37:59;;;;;;;;;;;19.80;52.20;;;;;;1573427;74;797;-62
2023/01/05 10:40:18;;;;;;;;;;;19.90;52.40;;;;;;1582032;74;1180;-62
2023/01/05 10:42:32;;;;;;;;;;;19.80;52.30;;;;;;1564890;74;726;-62
2023/01/05 10:44:35;;;;;;;;;;;19.80;52.30;;;;;;1573906;74;1914;-61
2023/01/05 10:46:38;;;;;;;;;;;19.80;52.20;;;;;;1578892;74;793;-61
2023/01/05 10:48:40;;;;;;;;;;;19.80;52.20;;;;;;1576080;74;1114;-61
2023/01/05 10:50:43;;;;;;;;;;;19.90;52.30;;;;;;1522586;77;745;-62
2023/01/05 10:52:45;;;;;;;;;;;19.90;52.30;;;;;;1521397;77;826;-62
2023/01/05 10:54:48;;;;;;;;;;;19.80;52.20;;;;;;1541964;76;792;-62
2023/01/05 10:56:50;;;;;;;;;;;19.90;52.30;;;;;;1536004;76;1779;-61
2023/01/05 10:59:08;;;;;;;;;;;19.80;52.20;;;;;;1526445;76;1167;-61
2023/01/05 11:01:24;;;;;;;;;;;19.90;52.20;;;;;;1533724;75;769;-62
2023/01/05 11:03:31;;;;;;;;;;;19.80;52.10;;;;;;1546226;75;783;-61
2023/01/05 11:05:36;;;;;;;;;;;19.90;52.30;;;;;;1515961;77;1793;-62
2023/01/05 11:07:50;;;;;;;;;;;19.90;52.20;;;;;;1513714;76;800;-61
2023/01/05 11:09:52;;;;;;;;;;;19.90;52.30;;;;;;1551039;75;1131;-62
2023/01/05 11:11:55;;;;;;;;;;;19.80;52.10;;;;;;1546759;75;606;-62
2023/01/05 11:13:57;;;;;;;;;;;19.80;52.10;;;;;;1541600;75;743;-61
2023/01/05 11:16:10;;;;;;;;;;;19.90;52.20;;;;;;1535037;75;780;-61
2023/01/05 11:18:22;;;;;;;;;;;19.90;52.20;;;;;;1546212;76;731;-62
2023/01/05 11:20:24;;;;;;;;;;;19.80;52.20;;;;;;1542868;75;1564;-61
2023/01/05 11:22:47;;;;;;;;;;;19.90;52.30;;;;;;1544183;75;710;-61
2023/01/05 11:24:49;;;;;;;;;;;19.80;52.10;;;;;;1552048;75;1915;-62
2023/01/05 11:26:52;;;;;;;;;;;19.90;52.20;;;;;;1547669;75;847;-61
2023/01/05 11:28:57;;;;;;;;;;;19.80;52.10;;;;;;1523638;76;1100;-61
2023/01/05 11:31:02;;;;;;;;;;;19.80;52.20;;;;;;1550754;75;692;-61
2023/01/05 11:33:05;;;;;;;;;;;19.90;52.30;;;;;;1550094;75;900;-61
2023/01/05 11:35:19;;;;;;;;;;;19.90;52.30;;;;;;1549488;75;1862;-62
2023/01/05 11:37:24;;;;;;;;;;;19.90;52.30;;;;;;1539955;75;738;-61
2023/01/05 11:39:30;;;;;;;;;;;19.90;52.30;;;;;;1551084;75;1166;-62
2023/01/05 11:41:33;;;;;;;;;;;19.90;52.30;;;;;;1547320;75;772;-62
2023/01/05 11:43:35;;;;;;;;;;;19.90;52.30;;;;;;1544220;75;778;-61
2023/01/05 11:45:40;;;;;;;;;;;19.80;52.20;;;;;;1547273;75;1929;-61
2023/01/05 11:47:47;;;;;;;;;;;19.80;52.20;;;;;;1544554;75;719;-61
2023/01/05 11:49:49;;;;;;;;;;;19.90;52.30;;;;;;1534769;75;1821;-62
2023/01/05 11:51:51;;;;;;;;;;;19.90;52.30;;;;;;1545887;75;791;-62
2023/01/05 11:53:53;;;;;;;;;;;19.90;52.30;;;;;;1545902;75;768;-62
2023/01/05 11:56:02;;;;;;;;;;;19.90;52.20;;;;;;1522629;77;756;-62
2023/01/05 11:58:12;;;;;;;;;;;19.90;52.20;;;;;;1573102;74;721;-61
2023/01/05 12:00:27;;;;;;;;;;;19.90;52.20;;;;;;1569272;74;1145;-61
2023/01/05 12:02:33;;;;;;;;;;;19.90;52.10;;;;;;1577702;74;1678;-60
2023/01/05 12:04:36;;;;;;;;;;;19.90;52.20;;;;;;1577577;74;1938;-60
2023/01/05 12:06:56;;;;;;;;;;;19.90;52.20;;;;;;1556491;74;1445;-60
2023/01/05 12:09:03;;;;;;;;;;;19.90;52.10;;;;;;1572420;74;1089;-61
2023/01/05 12:11:06;;;;;;;;;;;19.90;52.20;;;;;;1572606;74;752;-61
2023/01/05 12:13:28;;;;;;;;;;;19.90;52.10;;;;;;1571526;74;1957;-60
2023/01/05 12:15:37;;;;;;;;;;;19.90;52.10;;;;;;1573781;74;715;-60
2023/01/05 12:17:57;;;;;;;;;;;19.90;52.20;;;;;;1574613;74;1904;-60
2023/01/05 12:20:03;;;;;;;;;;;19.90;52.20;;;;;;1577261;74;1110;-60
2023/01/05 12:22:10;;;;;;;;;;;19.90;52.20;;;;;;1575570;74;1778;-61
2023/01/05 12:24:25;;;;;;;;;;;19.90;52.20;;;;;;1567229;74;1950;-61
2023/01/05 12:26:35;;;;;;;;;;;19.90;52.20;;;;;;1574898;74;1971;-60
2023/01/05 12:28:41;;;;;;;;;;;19.90;52.20;;;;;;1578246;74;1130;-60
2023/01/05 12:30:44;;;;;;;;;;;19.90;52.20;;;;;;1568259;74;1881;-60
2023/01/05 12:32:48;;;;;;;;;;;19.90;52.20;;;;;;1578193;74;826;-61
2023/01/05 12:34:57;;;;;;;;;;;19.90;52.20;;;;;;1576632;74;768;-60
2023/01/05 12:37:18;;;;;;;;;;;19.90;52.20;;;;;;1571403;74;1939;-61
2023/01/05 12:39:27;;;;;;;;;;;19.90;52.20;;;;;;1570126;74;1158;-61
2023/01/05 12:41:39;;;;;;;;;;;19.90;52.30;;;;;;1581724;74;726;-60
2023/01/05 12:43:58;;;;;;;;;;;19.90;52.30;;;;;;1576121;74;2102;-60
2023/01/05 12:46:02;;;;;;;;;;;19.90;52.20;;;;;;1569987;74;807;-60
2023/01/05 12:48:08;;;;;;;;;;;19.90;52.30;;;;;;1577633;74;810;-61
2023/01/05 12:50:12;;;;;;;;;;;19.90;52.20;;;;;;1572003;74;1109;-60
2023/01/05 12:52:21;;;;;;;;;;;19.90;52.20;;;;;;1577186;74;710;-61